Time;durP1;ratioP1;P1;durP2;ratioP2;P2;SDS_P1;SDS_P2;PMS_P1;PMS_P2;Temp;Humidity;BMP_temperature;BMP_pressure;BME280_temperature;BME280_humidity;BME280_pressure;Samples;Min_cycle;Max_cycle;Signal;HPM_P1;HPM_P2
2023/03/05 00:02:00;;;;;;;18.60;12.60;;;;;;;1.05;100.00;98617.47;109556;1252;67166;-77
2023/03/05 00:04:26;;;;;;;20.10;12.60;;;;;;;1.04;100.00;98618.19;109360;1251;61078;-78
2023/03/05 00:06:54;;;;;;;19.10;12.80;;;;;;;1.04;100.00;98620.30;109557;1251;63792;-78
2023/03/05 00:09:21;;;;;;;17.20;11.60;;;;;;;1.03;100.00;98620.89;109500;1251;59250;-77
2023/03/05 00:11:47;;;;;;;20.30;13.50;;;;;;;1.02;100.00;98623.53;109541;1251;58874;-78
2023/03/05 00:14:14;;;;;;;19.20;13.20;;;;;;;1.02;100.00;98623.36;109542;1251;65981;-78
2023/03/05 00:16:41;;;;;;;19.10;13.20;;;;;;;1.01;100.00;98621.27;109528;1251;59848;-77
2023/03/05 00:19:08;;;;;;;19.10;14.20;;;;;;;1.01;100.00;98625.49;109539;1251;64092;-78
2023/03/05 00:21:38;;;;;;;17.50;13.50;;;;;;;1.00;100.00;98619.57;109187;1251;59076;-77
2023/03/05 00:24:12;;;;;;;17.50;12.80;;;;;;;1.00;100.00;98612.91;109556;1251;59057;-78
2023/03/05 00:26:40;;;;;;;17.70;11.90;;;;;;;1.00;100.00;98614.48;109563;1251;66910;-78
2023/03/05 00:29:07;;;;;;;16.50;12.50;;;;;;;1.00;100.00;98612.91;109586;1251;59720;-79
2023/03/05 00:31:35;;;;;;;15.80;12.40;;;;;;;1.01;100.00;98605.55;109506;1251;64765;-77
2023/03/05 00:34:08;;;;;;;22.30;12.70;;;;;;;1.01;100.00;98600.81;109336;1251;59043;-78
2023/03/05 00:36:42;;;;;;;19.80;14.80;;;;;;;1.01;100.00;98598.02;109553;1251;58942;-79
2023/03/05 00:39:11;;;;;;;18.60;14.60;;;;;;;1.00;100.00;98594.55;109552;1251;66741;-78
2023/03/05 00:41:38;;;;;;;23.10;16.60;;;;;;;0.99;100.00;98591.08;108801;1251;1002250;-78
2023/03/05 00:44:05;;;;;;;28.20;18.00;;;;;;;0.99;100.00;98584.45;109547;1251;64081;-77
2023/03/05 00:46:32;;;;;;;28.50;18.00;;;;;;;0.99;100.00;98580.77;109499;1251;58991;-78
2023/03/05 00:48:58;;;;;;;28.40;18.50;;;;;;;0.99;100.00;98576.77;109495;1252;58993;-79
2023/03/05 00:51:26;;;;;;;23.70;17.00;;;;;;;0.99;100.00;98576.55;109509;1251;67224;-77
2023/03/05 00:53:52;;;;;;;25.50;18.70;;;;;;;1.00;100.00;98579.70;109572;1251;60699;-77
2023/03/05 00:56:20;;;;;;;21.90;18.40;;;;;;;0.98;100.00;98575.20;109182;1251;63773;-78
2023/03/05 00:58:47;;;;;;;24.90;20.20;;;;;;;0.97;100.00;98572.09;109517;1251;58916;-78
2023/03/05 01:01:13;;;;;;;21.40;18.40;;;;;;;0.97;100.00;98572.45;109364;1251;59060;-79
2023/03/05 01:03:40;;;;;;;26.30;19.90;;;;;;;0.97;100.00;98572.95;109251;1251;66940;-78
2023/03/05 01:06:10;;;;;;;25.30;20.10;;;;;;;0.97;100.00;98571.55;109664;1250;60749;-79
2023/03/05 01:08:37;;;;;;;26.50;19.80;;;;;;;0.98;100.00;98568.40;109632;1250;64823;-78
2023/03/05 01:11:06;;;;;;;23.20;18.60;;;;;;;0.98;100.00;98563.69;109613;1250;58971;-78
2023/03/05 01:13:32;;;;;;;25.80;17.70;;;;;;;0.98;100.00;98564.73;109610;1250;59106;-78
2023/03/05 01:16:00;;;;;;;25.20;18.00;;;;;;;0.96;100.00;98559.89;109591;1250;66738;-78
2023/03/05 01:18:27;;;;;;;27.80;17.60;;;;;;;0.95;100.00;98559.21;109674;1250;61106;-79
2023/03/05 01:20:54;;;;;;;25.20;19.20;;;;;;;0.97;100.00;98562.66;109613;1250;63668;-78
2023/03/05 01:23:20;;;;;;;32.60;19.20;;;;;;;0.96;100.00;98562.87;109591;1250;58981;-79
2023/03/05 01:25:54;;;;;;;32.70;20.00;;;;;;;0.96;100.00;98567.42;109606;1250;59015;-76
2023/03/05 01:28:21;;;;;;;21.90;18.00;;;;;;;0.95;100.00;98565.16;109596;1250;66870;-79
2023/03/05 01:30:48;;;;;;;24.30;17.20;;;;;;;0.95;100.00;98565.69;109639;1250;61164;-79
2023/03/05 01:33:15;;;;;;;30.80;19.80;;;;;;;0.95;100.00;98569.39;109633;1250;63693;-78
2023/03/05 01:35:44;;;;;;;27.50;19.80;;;;;;;0.95;100.00;98567.80;109636;1250;58988;-79
2023/03/05 01:38:11;;;;;;;25.40;18.90;;;;;;;0.95;100.00;98568.30;109598;1250;58943;-79
2023/03/05 01:40:37;;;;;;;28.30;18.90;;;;;;;0.95;100.00;98565.85;109608;1250;66727;-78
2023/03/05 01:43:10;;;;;;;29.00;18.30;;;;;;;0.95;100.00;98570.77;109690;1250;59772;-79
2023/03/05 01:45:39;;;;;;;39.00;24.90;;;;;;;0.94;100.00;98569.05;109637;1250;65149;-78
2023/03/05 01:48:05;;;;;;;34.10;22.20;;;;;;;0.93;100.00;98568.05;109603;1250;58961;-78
2023/03/05 01:50:32;;;;;;;25.50;18.10;;;;;;;0.94;100.00;98569.59;109639;1250;59030;-80
2023/03/05 01:53:06;;;;;;;25.00;17.70;;;;;;;0.93;100.00;98566.64;109669;1250;66767;-78
2023/03/05 01:55:36;;;;;;;26.20;17.20;;;;;;;0.93;100.00;98565.79;109624;1250;60751;-78
2023/03/05 01:58:07;;;;;;;31.10;18.70;;;;;;;0.91;100.00;98565.51;109606;1250;64086;-78
2023/03/05 02:00:41;;;;;;;31.30;20.00;;;;;;;0.89;100.00;98564.32;109639;1250;58923;-78
2023/03/05 02:03:11;;;;;;;33.20;20.10;;;;;;;0.88;100.00;98563.65;109241;1250;59015;-78
2023/03/05 02:05:40;;;;;;;29.50;21.40;;;;;;;0.88;100.00;98561.90;109678;1250;66864;-77
2023/03/05 02:08:09;;;;;;;27.20;19.30;;;;;;;0.87;100.00;98558.45;109643;1250;59893;-77
2023/03/05 02:10:37;;;;;;;24.20;18.50;;;;;;;0.87;100.00;98560.89;109748;1250;65137;-78
2023/03/05 02:13:08;;;;;;;25.00;18.00;;;;;;;0.87;100.00;98558.09;109704;1250;58986;-77
2023/03/05 02:15:36;;;;;;;26.00;17.40;;;;;;;0.87;100.00;98553.02;109722;1250;59126;-78
2023/03/05 02:18:04;;;;;;;22.80;16.60;;;;;;;0.86;100.00;98551.46;109663;1251;66358;-78
2023/03/05 02:20:44;;;;;;;23.90;17.20;;;;;;;0.88;100.00;98549.15;109724;1250;59749;-79
2023/03/05 02:23:11;;;;;;;25.90;18.60;;;;;;;0.88;100.00;98547.40;109629;1250;64898;-77
2023/03/05 02:25:38;;;;;;;27.50;16.10;;;;;;;0.87;100.00;98547.25;109628;1250;59095;-77
2023/03/05 02:28:23;;;;;;;23.70;15.20;;;;;;;0.86;100.00;98546.93;109641;1250;58891;-77
2023/03/05 02:30:50;;;;;;;24.80;14.30;;;;;;;0.84;100.00;98542.98;109632;1250;65610;-79
2023/03/05 02:33:17;;;;;;;18.40;13.20;;;;;;;0.83;100.00;98544.09;109630;1250;59850;-79
2023/03/05 02:35:45;;;;;;;19.60;12.30;;;;;;;0.80;100.00;98549.23;109535;1250;64963;-79
2023/03/05 02:38:14;;;;;;;16.30;10.80;;;;;;;0.77;100.00;98545.86;108833;1250;1002277;-78
2023/03/05 02:40:40;;;;;;;14.60;9.60;;;;;;;0.75;100.00;98545.94;109633;1250;58880;-78
2023/03/05 02:43:08;;;;;;;15.20;8.80;;;;;;;0.71;100.00;98542.05;109668;1250;66695;-78
2023/03/05 02:45:34;;;;;;;14.10;8.60;;;;;;;0.68;100.00;98542.67;109665;1250;60908;-78
2023/03/05 02:48:01;;;;;;;16.00;8.90;;;;;;;0.65;100.00;98544.18;109588;1250;65118;-79
2023/03/05 02:50:28;;;;;;;15.30;9.40;;;;;;;0.62;100.00;98544.42;109644;1250;59086;-78
2023/03/05 02:52:55;;;;;;;14.80;8.30;;;;;;;0.61;100.00;98540.99;109603;1250;58974;-78
2023/03/05 02:55:22;;;;;;;12.70;8.20;;;;;;;0.60;100.00;98537.67;109636;1250;66692;-78
2023/03/05 02:57:48;;;;;;;18.00;9.70;;;;;;;0.61;100.00;98533.27;109641;1250;60863;-79
2023/03/05 03:00:30;;;;;;;17.00;10.30;;;;;;;0.61;100.00;98535.55;109285;1250;63719;-78
2023/03/05 03:02:57;;;;;;;17.30;10.40;;;;;;;0.61;100.00;98532.41;109626;1250;58945;-78
2023/03/05 03:05:23;;;;;;;18.40;12.70;;;;;;;0.61;100.00;98535.39;109631;1250;60028;-80
2023/03/05 03:07:50;;;;;;;18.10;10.10;;;;;;;0.58;100.00;98539.16;109327;1250;66147;-78
2023/03/05 03:10:17;;;;;;;21.30;13.30;;;;;;;0.56;100.00;98538.20;109675;1250;60835;-78
2023/03/05 03:12:44;;;;;;;18.50;11.80;;;;;;;0.55;100.00;98538.91;109674;1250;65002;-77
2023/03/05 03:15:13;;;;;;;17.70;10.80;;;;;;;0.55;100.00;98538.22;109606;1250;58899;-77
2023/03/05 03:17:40;;;;;;;23.30;12.00;;;;;;;0.53;100.00;98540.56;109633;1250;58896;-77
2023/03/05 03:20:09;;;;;;;19.00;10.10;;;;;;;0.51;100.00;98539.41;109647;1250;66329;-77
2023/03/05 03:22:36;;;;;;;13.10;8.30;;;;;;;0.47;100.00;98542.49;109681;1250;59718;-78
2023/03/05 03:25:03;;;;;;;15.40;8.90;;;;;;;0.43;100.00;98538.09;109648;1250;64992;-78
2023/03/05 03:27:30;;;;;;;10.60;7.30;;;;;;;0.38;100.00;98533.36;109622;1250;58990;-78
2023/03/05 03:30:01;;;;;;;11.80;6.90;;;;;;;0.37;100.00;98530.59;109671;1250;59023;-77
2023/03/05 03:32:28;;;;;;;11.90;6.60;;;;;;;0.35;100.00;98528.38;108088;1250;1006404;-77
2023/03/05 03:34:54;;;;;;;11.50;6.10;;;;;;;0.33;100.00;98525.31;109657;1250;59903;-78
2023/03/05 03:37:22;;;;;;;13.00;6.50;;;;;;;0.31;100.00;98531.16;109401;1250;64707;-77
2023/03/05 03:39:49;;;;;;;10.00;5.50;;;;;;;0.30;100.00;98532.95;109608;1250;58992;-77
2023/03/05 03:42:17;;;;;;;9.60;5.30;;;;;;;0.28;100.00;98530.55;109666;1250;58842;-77
2023/03/05 03:44:44;;;;;;;10.40;6.30;;;;;;;0.26;100.00;98525.53;109652;1250;66793;-77
2023/03/05 03:47:10;;;;;;;8.90;6.10;;;;;;;0.25;100.00;98525.94;109270;1249;60812;-78
2023/03/05 03:49:37;;;;;;;11.40;9.30;;;;;;;0.23;100.00;98522.67;109610;1250;64998;-77
2023/03/05 03:52:04;;;;;;;15.30;10.60;;;;;;;0.20;100.00;98519.61;109625;1250;58990;-77
2023/03/05 03:54:31;;;;;;;22.40;13.50;;;;;;;0.17;100.00;98517.96;109660;1250;59030;-77
2023/03/05 03:56:57;;;;;;;16.30;11.30;;;;;;;0.13;100.00;98520.74;109671;1250;66777;-78
2023/03/05 03:59:24;;;;;;;16.30;11.30;;;;;;;0.09;100.00;98513.20;109534;1250;59739;-78
2023/03/05 04:01:50;;;;;;;18.20;12.10;;;;;;;0.08;100.00;98506.39;109648;1250;63784;-77
2023/03/05 04:04:17;;;;;;;19.20;13.10;;;;;;;0.09;100.00;98508.46;109634;1250;59007;-77
2023/03/05 04:06:44;;;;;;;14.10;9.90;;;;;;;0.06;100.00;98510.48;109694;1250;59160;-77
2023/03/05 04:09:10;;;;;;;15.30;9.50;;;;;;;-0.01;100.00;98502.70;109646;1250;66013;-78
2023/03/05 04:11:37;;;;;;;13.00;9.80;;;;;;;-0.07;100.00;98499.02;109658;1250;59853;-78
2023/03/05 04:14:04;;;;;;;17.20;9.60;;;;;;;-0.09;100.00;98495.77;109377;1250;62829;-77
2023/03/05 04:16:31;;;;;;;15.40;9.90;;;;;;;-0.09;100.00;98491.05;109628;1250;59205;-78
2023/03/05 04:18:58;;;;;;;15.00;11.30;;;;;;;-0.10;100.00;98490.73;109651;1250;59021;-78
2023/03/05 04:21:25;;;;;;;15.30;11.90;;;;;;;-0.12;100.00;98489.73;109641;1250;66759;-77
2023/03/05 04:23:51;;;;;;;15.40;12.60;;;;;;;-0.12;100.00;98489.93;109613;1250;58985;-77
2023/03/05 04:26:18;;;;;;;19.30;13.10;;;;;;;-0.14;100.00;98489.28;109623;1250;65003;-77
2023/03/05 04:28:45;;;;;;;19.00;12.80;;;;;;;-0.15;100.00;98488.44;109631;1250;58986;-78
2023/03/05 04:31:12;;;;;;;17.40;12.50;;;;;;;-0.15;100.00;98488.98;109658;1250;59097;-77
2023/03/05 04:33:38;;;;;;;16.40;13.40;;;;;;;-0.16;100.00;98488.12;108852;1250;1002448;-77
2023/03/05 04:36:06;;;;;;;17.80;13.40;;;;;;;-0.16;100.00;98481.85;109677;1250;59543;-76
2023/03/05 04:38:33;;;;;;;15.90;13.30;;;;;;;-0.16;100.00;98481.66;109680;1250;63849;-77
2023/03/05 04:40:59;;;;;;;16.70;13.50;;;;;;;-0.18;100.00;98477.90;109651;1250;58964;-77
2023/03/05 04:43:26;;;;;;;17.90;12.30;;;;;;;-0.20;100.00;98474.29;109616;1250;59802;-77
2023/03/05 04:45:54;;;;;;;18.20;12.80;;;;;;;-0.21;100.00;98474.34;109683;1250;66744;-77
2023/03/05 04:48:20;;;;;;;17.80;14.10;;;;;;;-0.23;100.00;98470.90;109645;1250;68877;-77
2023/03/05 04:50:47;;;;;;;18.80;13.70;;;;;;;-0.26;100.00;98471.34;109621;1250;63702;-77
2023/03/05 04:53:14;;;;;;;21.10;14.70;;;;;;;-0.26;100.00;98473.60;109627;1250;58992;-77
2023/03/05 04:55:42;;;;;;;20.20;16.10;;;;;;;-0.28;100.00;98467.39;109611;1250;58887;-77
2023/03/05 04:58:09;;;;;;;18.20;15.50;;;;;;;-0.28;100.00;98459.87;109661;1250;67175;-77
2023/03/05 05:00:35;;;;;;;20.80;17.80;;;;;;;-0.28;100.00;98460.23;109618;1250;68350;-77
2023/03/05 05:03:02;;;;;;;24.80;20.30;;;;;;;-0.27;100.00;98460.38;109644;1250;63954;-77
2023/03/05 05:05:29;;;;;;;24.50;19.30;;;;;;;-0.26;100.00;98453.02;109623;1254;59981;-77
2023/03/05 05:07:57;;;;;;;25.70;22.30;;;;;;;-0.26;100.00;98447.60;109670;1250;59068;-77
2023/03/05 05:10:24;;;;;;;28.60;22.10;;;;;;;-0.26;100.00;98446.23;109645;1250;64890;-78
2023/03/05 05:12:51;;;;;;;27.30;22.20;;;;;;;-0.27;100.00;98447.63;109493;1250;60348;-78
2023/03/05 05:15:18;;;;;;;26.00;21.10;;;;;;;-0.30;100.00;98447.02;109630;1250;63681;-78
2023/03/05 05:17:45;;;;;;;23.50;18.70;;;;;;;-0.32;100.00;98453.38;109651;1250;58933;-78
2023/03/05 05:20:13;;;;;;;26.10;20.10;;;;;;;-0.33;100.00;98454.83;109641;1250;59041;-78
2023/03/05 05:22:41;;;;;;;23.40;19.30;;;;;;;-0.35;100.00;98451.73;109663;1250;66082;-78
2023/03/05 05:25:09;;;;;;;23.20;18.40;;;;;;;-0.40;100.00;98451.71;109663;1250;60747;-78
2023/03/05 05:27:36;;;;;;;29.60;21.00;;;;;;;-0.43;100.00;98453.02;109526;1250;64851;-78
2023/03/05 05:30:04;;;;;;;28.10;22.20;;;;;;;-0.42;100.00;98449.69;109536;1250;59108;-78
2023/03/05 05:32:30;;;;;;;30.80;23.20;;;;;;;-0.41;100.00;98451.92;109666;1250;58866;-78
2023/03/05 05:34:57;;;;;;;27.70;22.30;;;;;;;-0.38;100.00;98450.80;109618;1250;66507;-78
2023/03/05 05:37:26;;;;;;;36.90;27.50;;;;;;;-0.35;100.00;98454.33;109625;1250;59812;-77
2023/03/05 05:39:53;;;;;;;43.20;31.70;;;;;;;-0.30;100.00;98458.02;109652;1250;64879;-78
2023/03/05 05:42:22;;;;;;;46.80;35.50;;;;;;;-0.26;100.00;98455.11;109255;1257;59024;-78
2023/03/05 05:44:49;;;;;;;42.10;32.30;;;;;;;-0.21;100.00;98457.58;109659;1250;59005;-78
2023/03/05 05:47:16;;;;;;;40.10;33.70;;;;;;;-0.17;100.00;98460.74;108907;1250;1002496;-78
2023/03/05 05:49:43;;;;;;;47.50;35.20;;;;;;;-0.12;100.00;98461.65;109679;1250;60714;-78
2023/03/05 05:52:10;;;;;;;65.70;44.00;;;;;;;-0.08;100.00;98463.60;109666;1250;65092;-78
2023/03/05 05:54:37;;;;;;;53.40;39.50;;;;;;;-0.04;100.00;98466.43;109642;1250;58988;-78
2023/03/05 05:57:03;;;;;;;53.40;39.70;;;;;;;0.00;100.00;98472.77;109553;1250;59085;-78
2023/03/05 05:59:30;;;;;;;52.90;38.20;;;;;;;0.03;100.00;98479.84;109645;1250;66899;-78
2023/03/05 06:01:56;;;;;;;48.90;37.70;;;;;;;0.05;100.00;98474.69;109649;1250;60096;-78
2023/03/05 06:04:23;;;;;;;47.50;32.80;;;;;;;0.08;100.00;98477.91;109331;1250;64750;-79
2023/03/05 06:06:50;;;;;;;48.90;35.00;;;;;;;0.11;100.00;98478.89;109595;1250;58935;-79
2023/03/05 06:09:16;;;;;;;62.30;39.90;;;;;;;0.13;100.00;98481.27;109676;1250;58974;-77
2023/03/05 06:11:43;;;;;;;47.60;35.10;;;;;;;0.14;100.00;98482.99;109642;1250;66732;-78
2023/03/05 06:14:11;;;;;;;54.90;38.80;;;;;;;0.12;100.00;98486.17;109671;1250;60720;-78
2023/03/05 06:16:38;;;;;;;62.30;41.90;;;;;;;0.11;100.00;98486.56;109601;1250;64698;-77
2023/03/05 06:19:05;;;;;;;59.50;39.70;;;;;;;0.10;100.00;98487.11;109628;1250;58997;-77
2023/03/05 06:21:32;;;;;;;48.40;33.60;;;;;;;0.09;100.00;98488.73;109668;1250;58817;-77
2023/03/05 06:23:59;;;;;;;43.10;31.00;;;;;;;0.06;100.00;98489.86;109624;1250;66974;-77
2023/03/05 06:26:25;;;;;;;37.00;27.80;;;;;;;0.05;100.00;98486.75;109611;1251;59759;-77
2023/03/05 06:28:53;;;;;;;39.50;31.20;;;;;;;0.07;100.00;98488.61;109643;1254;63724;-78
2023/03/05 06:31:22;;;;;;;37.60;29.10;;;;;;;0.08;100.00;98486.13;109631;1250;58977;-77
2023/03/05 06:33:49;;;;;;;31.70;24.80;;;;;;;0.09;100.00;98482.95;109611;1250;59588;-77
2023/03/05 06:36:17;;;;;;;31.50;23.70;;;;;;;0.07;100.00;98480.57;109627;1250;66035;-78
2023/03/05 06:38:46;;;;;;;33.70;25.30;;;;;;;0.04;100.00;98481.04;109666;1250;59838;-78
2023/03/05 06:41:15;;;;;;;34.40;24.30;;;;;;;0.04;100.00;98478.59;109652;1250;64616;-78
2023/03/05 06:43:44;;;;;;;35.70;25.70;;;;;;;0.07;100.00;98477.10;109624;1251;59003;-77
2023/03/05 06:46:20;;;;;;;34.80;26.60;;;;;;;0.12;100.00;98477.09;109598;1250;59007;-77
2023/03/05 06:48:48;;;;;;;33.20;26.30;;;;;;;0.18;100.00;98480.40;109626;1250;66148;-79
2023/03/05 06:51:21;;;;;;;29.80;24.20;;;;;;;0.20;100.00;98481.52;109649;1250;60232;-78
2023/03/05 06:53:48;;;;;;;27.60;22.00;;;;;;;0.26;100.00;98477.17;109660;1250;64024;-79
2023/03/05 06:56:15;;;;;;;23.10;19.50;;;;;;;0.32;100.00;98476.96;109377;1250;59015;-77
2023/03/05 06:58:44;;;;;;;30.60;21.60;;;;;;;0.35;100.00;98473.71;109655;1250;59065;-79
2023/03/05 07:01:12;;;;;;;26.90;20.60;;;;;;;0.40;100.00;98473.17;109621;1250;67119;-79
2023/03/05 07:03:39;;;;;;;28.40;18.90;;;;;;;0.48;100.00;98472.92;109673;1251;61092;-79
2023/03/05 07:06:09;;;;;;;35.60;23.50;;;;;;;0.54;100.00;98470.96;109258;1251;64758;-78
2023/03/05 07:08:37;;;;;;;34.60;21.90;;;;;;;0.60;100.00;98466.92;109613;1250;58987;-78
2023/03/05 07:11:09;;;;;;;28.70;20.40;;;;;;;0.69;100.00;98467.65;107990;1254;1002420;-78
2023/03/05 07:13:36;;;;;;;26.70;19.70;;;;;;;0.82;100.00;98463.14;109687;1250;66783;-77
2023/03/05 07:16:07;;;;;;;21.90;16.70;;;;;;;0.97;100.00;98456.30;109673;1251;59845;-76
2023/03/05 07:18:35;;;;;;;21.00;16.10;;;;;;;1.12;100.00;98456.27;109295;1250;64748;-76
2023/03/05 07:21:04;;;;;;;16.90;12.40;;;;;;;1.26;100.00;98454.02;109625;1250;58989;-78
2023/03/05 07:23:31;;;;;;;18.30;10.90;;;;;;;1.37;100.00;98451.66;109441;1250;59016;-78
2023/03/05 07:26:05;;;;;;;16.60;12.50;;;;;;;1.45;100.00;98450.66;109535;1252;67053;-77
2023/03/05 07:28:32;;;;;;;16.60;12.20;;;;;;;1.57;100.00;98451.06;109634;1250;61541;-77
2023/03/05 07:31:05;;;;;;;15.10;11.10;;;;;;;1.64;100.00;98444.29;109637;1251;65032;-77
2023/03/05 07:33:33;;;;;;;16.80;10.70;;;;;;;1.70;100.00;98440.56;109537;1250;59017;-80
2023/03/05 07:36:00;;;;;;;14.50;10.40;;;;;;;1.77;100.00;98434.14;109525;1251;59014;-79
2023/03/05 07:38:27;;;;;;;17.30;12.20;;;;;;;1.90;100.00;98424.88;109688;1250;64402;-78
2023/03/05 07:40:54;;;;;;;19.40;13.80;;;;;;;2.02;100.00;98419.48;109659;1250;60058;-77
2023/03/05 07:43:20;;;;;;;19.60;14.60;;;;;;;2.14;100.00;98418.42;109580;1251;65038;-78
2023/03/05 07:45:47;;;;;;;18.10;13.60;;;;;;;2.27;100.00;98417.88;109656;1250;58946;-78
2023/03/05 07:48:16;;;;;;;21.50;14.60;;;;;;;2.36;100.00;98411.89;109604;1250;58938;-79
2023/03/05 07:50:43;;;;;;;20.20;14.60;;;;;;;2.46;100.00;98410.41;109734;1250;67032;-78
2023/03/05 07:53:10;;;;;;;20.80;15.70;;;;;;;2.55;100.00;98404.92;109621;1250;60739;-78
2023/03/05 07:55:46;;;;;;;22.10;16.70;;;;;;;2.65;100.00;98400.65;109631;1250;65589;-78
2023/03/05 07:58:13;;;;;;;25.60;20.20;;;;;;;2.82;100.00;98396.90;109618;1250;58856;-78
2023/03/05 08:00:40;;;;;;;22.90;18.50;;;;;;;3.01;100.00;98392.48;109620;1251;59010;-78
2023/03/05 08:03:07;;;;;;;21.30;17.80;;;;;;;3.18;100.00;98392.63;109646;1250;66572;-76
2023/03/05 08:05:34;;;;;;;20.70;16.60;;;;;;;3.28;100.00;98391.44;109626;1251;60715;-79
2023/03/05 08:08:00;;;;;;;20.80;15.10;;;;;;;3.37;100.00;98386.95;109578;1251;63753;-78
2023/03/05 08:10:27;;;;;;;19.30;14.40;;;;;;;3.44;100.00;98385.06;109590;1250;58949;-78
2023/03/05 08:12:53;;;;;;;20.70;17.50;;;;;;;3.47;100.00;98384.56;109610;1251;58953;-78
2023/03/05 08:15:20;;;;;;;23.20;16.50;;;;;;;3.52;100.00;98385.02;109622;1250;66882;-78
2023/03/05 08:17:47;;;;;;;21.60;16.10;;;;;;;3.53;100.00;98382.02;109626;1250;59773;-78
2023/03/05 08:20:13;;;;;;;19.80;16.30;;;;;;;3.54;100.00;98381.27;109317;1250;64871;-78
2023/03/05 08:22:40;;;;;;;23.40;15.40;;;;;;;3.60;100.00;98379.02;109554;1250;58924;-77
2023/03/05 08:25:07;;;;;;;19.50;14.00;;;;;;;3.68;100.00;98377.92;109620;1254;58982;-77
2023/03/05 08:27:38;;;;;;;23.40;15.10;;;;;;;3.71;100.00;98379.02;109598;1250;64518;-78
2023/03/05 08:30:05;;;;;;;16.00;11.90;;;;;;;3.78;100.00;98375.70;109405;1252;59781;-77
2023/03/05 08:32:32;;;;;;;17.10;12.00;;;;;;;3.83;100.00;98370.89;109307;1251;65032;-77
2023/03/05 08:35:00;;;;;;;17.20;12.30;;;;;;;3.85;100.00;98372.87;109615;1250;59010;-75
2023/03/05 08:37:28;;;;;;;17.30;12.90;;;;;;;3.90;100.00;98370.88;109538;1251;59129;-78
2023/03/05 08:39:55;;;;;;;22.40;15.30;;;;;;;3.96;100.00;98367.96;109651;1251;67101;-78
2023/03/05 08:42:22;;;;;;;18.80;14.10;;;;;;;4.03;100.00;98365.83;109677;1250;59752;-77
2023/03/05 08:44:49;;;;;;;22.80;16.80;;;;;;;4.06;100.00;98367.45;109625;1251;64704;-78
2023/03/05 08:47:17;;;;;;;18.80;14.70;;;;;;;4.05;100.00;98368.02;109587;1251;58964;-78
2023/03/05 08:49:44;;;;;;;21.40;15.10;;;;;;;4.03;100.00;98367.08;109652;1251;59081;-78
2023/03/05 08:52:10;;;;;;;19.90;15.60;;;;;;;4.05;100.00;98362.22;109682;1250;67077;-78
2023/03/05 08:54:37;;;;;;;22.70;16.70;;;;;;;4.08;100.00;98358.73;109624;1251;59734;-78
2023/03/05 08:57:04;;;;;;;24.10;17.30;;;;;;;4.12;100.00;98357.46;109674;1251;63767;-78
2023/03/05 08:59:31;;;;;;;25.10;18.00;;;;;;;4.15;100.00;98356.10;109601;1250;59529;-78
2023/03/05 09:02:01;;;;;;;23.50;17.70;;;;;;;4.24;100.00;98356.15;109663;1250;58888;-78
2023/03/05 09:04:27;;;;;;;;;;;;;;;4.33;100.00;98354.80;109621;1250;67166;-77
2023/03/05 09:06:56;;;;;;;27.60;21.70;;;;;;;4.35;100.00;98353.08;109680;1251;60115;-77
2023/03/05 09:09:23;;;;;;;23.80;18.50;;;;;;;4.35;100.00;98351.52;109637;1251;64213;-77
2023/03/05 09:11:51;;;;;;;23.80;19.10;;;;;;;4.31;100.00;98352.27;109622;1251;58963;-76
2023/03/05 09:14:17;;;;;;;25.90;20.30;;;;;;;4.26;100.00;98349.17;109628;1251;59026;-76
2023/03/05 09:16:44;;;;;;;21.10;17.90;;;;;;;4.27;100.00;98351.78;109335;1251;67029;-76
2023/03/05 09:19:11;;;;;;;22.40;17.40;;;;;;;4.27;100.00;98353.68;109667;1250;60965;-76
2023/03/05 09:21:38;;;;;;;25.90;20.10;;;;;;;4.37;100.00;98346.85;109627;1251;64999;-76
2023/03/05 09:24:05;;;;;;;22.60;19.30;;;;;;;4.44;100.00;98345.45;109673;1250;58927;-77
2023/03/05 09:26:32;;;;;;;22.80;18.30;;;;;;;4.38;100.00;98346.97;109707;1250;58983;-78
2023/03/05 09:28:58;;;;;;;24.40;20.20;;;;;;;4.32;100.00;98344.30;109616;1251;65961;-78
2023/03/05 09:31:25;;;;;;;26.30;20.20;;;;;;;4.33;100.00;98343.16;109670;1251;60259;-78
2023/03/05 09:33:51;;;;;;;24.20;18.70;;;;;;;4.39;100.00;98344.64;109661;1250;64005;-79
2023/03/05 09:36:25;;;;;;;25.50;20.00;;;;;;;4.41;100.00;98341.38;109656;1251;58991;-78
2023/03/05 09:38:53;;;;;;;26.40;20.80;;;;;;;4.32;100.00;98341.30;109649;1251;59060;-78
2023/03/05 09:41:47;;;;;;;27.10;20.00;;;;;;;4.23;100.00;98340.88;109649;1250;65751;-77
2023/03/05 09:44:36;;;;;;;25.70;19.50;;;;;;;4.16;100.00;98335.80;109699;1250;61246;-76
2023/03/05 09:47:11;;;;;;;23.90;19.60;;;;;;;4.05;100.00;98337.40;109604;1251;65445;-76
2023/03/05 09:50:17;;;;;;;22.20;18.50;;;;;;;3.95;100.00;98332.96;109612;1251;58948;-78
2023/03/05 09:52:57;;;;;;;22.00;16.80;;;;;;;3.84;100.00;98334.77;109032;1257;59379;-76
2023/03/05 09:55:45;;;;;;;23.50;17.30;;;;;;;3.82;100.00;98334.18;109038;1257;66721;-76
2023/03/05 09:58:16;;;;;;;24.70;16.00;;;;;;;3.78;100.00;98334.38;109043;1257;59724;-76
2023/03/05 10:00:52;;;;;;;21.30;16.10;;;;;;;3.71;100.00;98334.22;109025;1257;64782;-78
2023/03/05 10:03:24;;;;;;;23.00;16.70;;;;;;;3.64;100.00;98331.55;109093;1257;59423;-78
2023/03/05 10:06:10;;;;;;;19.90;15.10;;;;;;;3.61;100.00;98330.85;109140;1257;59027;-76
2023/03/05 10:08:53;;;;;;;20.80;15.00;;;;;;;3.57;100.00;98329.46;109012;1258;66001;-76
2023/03/05 10:11:36;;;;;;;23.40;16.10;;;;;;;3.50;100.00;98325.40;109007;1258;60129;-77
2023/03/05 10:14:03;;;;;;;19.60;15.20;;;;;;;3.38;100.00;98325.48;108231;1258;1002316;-77
2023/03/05 10:16:44;;;;;;;20.70;14.70;;;;;;;3.26;100.00;98322.16;108965;1259;58984;-76
2023/03/05 10:19:31;;;;;;;19.30;13.80;;;;;;;3.13;100.00;98320.15;109024;1259;59056;-76
2023/03/05 10:22:15;;;;;;;22.80;14.70;;;;;;;3.04;100.00;98320.77;109008;1259;65796;-76
2023/03/05 10:24:58;;;;;;;19.50;13.50;;;;;;;2.95;100.00;98322.26;109030;1259;60394;-77
2023/03/05 10:27:51;;;;;;;22.30;17.30;;;;;;;2.79;100.00;98323.87;109002;1259;65317;-77
2023/03/05 10:30:21;;;;;;;21.40;14.40;;;;;;;2.62;100.00;98323.74;109391;1250;58996;-76
2023/03/05 10:33:17;;;;;;;22.10;14.10;;;;;;;2.52;100.00;98319.85;109619;1251;58980;-76
2023/03/05 10:36:15;;;;;;;22.00;15.60;;;;;;;2.40;100.00;98319.65;109627;1251;67023;-77
2023/03/05 10:38:58;;;;;;;30.10;18.40;;;;;;;2.30;100.00;98319.42;108985;1259;60103;-77
2023/03/05 10:41:39;;;;;;;31.10;23.60;;;;;;;2.21;100.00;98317.89;108968;1260;65139;-76
2023/03/05 10:44:20;;;;;;;23.30;17.30;;;;;;;2.14;100.00;98320.80;108942;1261;58967;-77
2023/03/05 10:46:48;;;;;;;18.40;14.50;;;;;;;2.08;100.00;98318.30;109001;1259;61396;-76
2023/03/05 10:49:25;;;;;;;18.40;12.20;;;;;;;2.04;100.00;98317.78;109004;1259;67133;-77
2023/03/05 10:52:21;;;;;;;17.40;12.30;;;;;;;1.93;100.00;98320.31;108611;1259;459371;-77
2023/03/05 10:54:50;;;;;;;14.90;10.10;;;;;;;1.81;100.00;98320.14;108655;1264;63760;-78
2023/03/05 10:57:29;;;;;;;17.50;10.00;;;;;;;1.70;100.00;98322.34;108661;1263;59027;-78
2023/03/05 11:00:05;;;;;;;15.00;10.40;;;;;;;1.61;100.00;98320.45;108691;1263;59880;-77
2023/03/05 11:02:32;;;;;;;15.20;9.60;;;;;;;1.61;100.00;98315.05;108658;1263;66012;-77
2023/03/05 11:04:59;;;;;;;17.40;10.30;;;;;;;1.63;100.00;98314.06;108650;1265;61261;-77
2023/03/05 11:07:31;;;;;;;12.70;9.20;;;;;;;1.68;100.00;98312.45;108419;1265;64132;-77
2023/03/05 11:10:15;;;;;;;15.90;10.30;;;;;;;1.72;100.00;98312.28;106344;1265;1002668;-78
2023/03/05 11:12:43;;;;;;;13.40;8.70;;;;;;;1.71;100.00;98309.35;108641;1266;59105;-78
2023/03/05 11:15:12;;;;;;;15.10;9.90;;;;;;;1.65;100.00;98305.60;108616;1259;67142;-77
2023/03/05 11:17:47;;;;;;;14.10;9.30;;;;;;;1.56;100.00;98306.66;108251;1260;1002384;-76
2023/03/05 11:20:26;;;;;;;16.80;10.00;;;;;;;1.49;100.00;98304.14;108997;1260;63972;-76